Time;durP1;ratioP1;P1;durP2;ratioP2;P2;SDS_P1;SDS_P2;PMS_P1;PMS_P2;Temp;Humidity;BMP_temperature;BMP_pressure;BME280_temperature;BME280_humidity;BME280_pressure;Samples;Min_cycle;Max_cycle;Signal;HPM_P1;HPM_P2
2021/08/18 00:00:58;;;;;;;10.07;9.27;;;14.70;99.90;;;;;;2631722;54;20842;-81
2021/08/18 00:03:28;;;;;;;11.95;10.82;;;14.80;99.90;;;;;;2631398;46;20936;-81
2021/08/18 00:05:56;;;;;;;10.45;9.55;;;14.90;99.90;;;;;;2631243;47;20827;-82
2021/08/18 00:08:25;;;;;;;11.52;10.52;;;14.90;99.90;;;;;;2631576;46;20187;-82
2021/08/18 00:10:54;;;;;;;11.00;10.00;;;14.90;99.90;;;;;;2631202;47;20999;-82
2021/08/18 00:13:25;;;;;;;11.30;10.20;;;14.80;99.90;;;;;;2631098;54;20177;-84
2021/08/18 00:15:57;;;;;;;10.38;9.48;;;14.90;99.90;;;;;;2631417;47;20149;-81
2021/08/18 00:18:26;;;;;;;11.57;10.48;;;14.80;99.90;;;;;;2631313;54;20164;-84
2021/08/18 00:20:55;;;;;;;11.07;10.07;;;14.80;99.90;;;;;;2631532;47;20137;-83
2021/08/18 00:23:24;;;;;;;10.63;9.52;;;14.70;99.90;;;;;;2631212;47;20150;-82
2021/08/18 00:25:54;;;;;;;10.65;9.70;;;14.80;99.90;;;;;;2631337;47;20151;-81
2021/08/18 00:28:23;;;;;;;10.57;9.68;;;14.70;99.90;;;;;;2631328;47;20167;-82
2021/08/18 00:30:52;;;;;;;15.18;9.20;;;14.80;99.90;;;;;;2631580;54;20148;-81
2021/08/18 00:33:24;;;;;;;9.27;8.48;;;14.80;99.90;;;;;;2631428;46;20853;-82
2021/08/18 00:35:52;;;;;;;9.57;8.77;;;14.80;99.90;;;;;;2631414;47;20146;-82
2021/08/18 00:38:21;;;;;;;9.40;8.60;;;14.80;99.90;;;;;;2631230;54;20153;-83
2021/08/18 00:40:50;;;;;;;9.07;8.27;;;14.80;99.90;;;;;;2631409;47;20164;-82
2021/08/18 00:43:19;;;;;;;8.85;8.05;;;14.80;99.90;;;;;;2631512;46;20156;-81
2021/08/18 00:45:48;;;;;;;9.88;8.98;;;14.80;99.90;;;;;;2631134;46;20197;-79
2021/08/18 00:48:16;;;;;;;8.77;7.97;;;14.90;99.90;;;;;;2631260;46;20173;-81
2021/08/18 00:50:48;;;;;;;9.90;9.05;;;14.80;99.90;;;;;;2631338;54;20164;-81
2021/08/18 00:53:17;;;;;;;8.40;7.70;;;14.80;99.90;;;;;;2631496;46;20130;-84
2021/08/18 00:55:45;;;;;;;10.02;9.10;;;14.70;99.90;;;;;;2631270;54;20142;-81
2021/08/18 00:58:15;;;;;;;9.63;8.73;;;14.60;99.90;;;;;;2631457;54;20153;-81
2021/08/18 01:00:43;;;;;;;9.25;8.45;;;14.50;99.90;;;;;;2631283;47;20140;-81
2021/08/18 01:03:12;;;;;;;9.02;8.23;;;14.50;99.90;;;;;;2630987;54;20150;-82
2021/08/18 01:05:41;;;;;;;7.95;7.32;;;14.60;99.90;;;;;;2630993;47;20148;-81
2021/08/18 01:08:12;;;;;;;7.88;7.13;;;14.50;99.90;;;;;;2631473;46;20126;-82
2021/08/18 01:10:41;;;;;;;9.30;8.48;;;14.40;99.90;;;;;;2631484;47;20156;-83
2021/08/18 01:13:10;;;;;;;9.25;8.35;;;14.40;99.90;;;;;;2631237;47;20138;-82
2021/08/18 01:15:39;;;;;;;9.55;8.70;;;14.50;99.90;;;;;;2631269;47;20142;-81
2021/08/18 01:18:08;;;;;;;9.38;8.48;;;14.50;99.90;;;;;;2631398;46;20145;-83
2021/08/18 01:20:40;;;;;;;8.70;7.97;;;14.40;99.90;;;;;;2646417;31;20801;-83
2021/08/18 01:23:13;;;;;;;10.15;9.35;;;14.50;99.90;;;;;;2631308;54;20144;-82
2021/08/18 01:25:44;;;;;;;10.02;9.25;;;14.60;99.90;;;;;;2631154;54;20141;-82
2021/08/18 01:28:14;;;;;;;10.10;9.18;;;14.50;99.90;;;;;;2631058;47;20141;-82
2021/08/18 01:30:45;;;;;;;9.43;8.63;;;14.50;99.90;;;;;;2631227;47;20149;-82
2021/08/18 01:33:17;;;;;;;9.55;8.80;;;14.40;99.90;;;;;;2631246;54;20149;-81
2021/08/18 01:35:47;;;;;;;7.97;7.38;;;14.40;99.90;;;;;;2631121;47;20182;-80
2021/08/18 01:38:18;;;;;;;9.15;8.25;;;14.40;99.90;;;;;;2631267;46;20169;-83
2021/08/18 01:40:51;;;;;;;9.07;8.23;;;14.50;99.90;;;;;;2631310;47;20149;-82
2021/08/18 01:43:19;;;;;;;9.07;8.35;;;14.50;99.90;;;;;;2631241;54;20218;-80
2021/08/18 01:45:52;;;;;;;9.40;8.50;;;14.50;99.90;;;;;;2630971;54;20158;-81
2021/08/18 01:48:22;;;;;;;8.52;7.72;;;14.60;99.90;;;;;;2631222;46;20149;-82
2021/08/18 01:50:53;;;;;;;8.57;7.88;;;14.60;99.90;;;;;;2631047;47;20138;-82
2021/08/18 01:53:23;;;;;;;7.88;7.18;;;14.50;99.90;;;;;;2631233;54;20160;-83
2021/08/18 01:55:52;;;;;;;7.80;7.05;;;14.50;99.90;;;;;;2630923;46;20152;-80
2021/08/18 01:58:21;;;;;;;7.43;6.72;;;14.50;99.90;;;;;;2631223;46;20176;-82
2021/08/18 02:00:52;;;;;;;7.60;7.00;;;14.50;99.90;;;;;;2631267;46;20192;-82
2021/08/18 02:03:23;;;;;;;6.88;6.28;;;14.50;99.90;;;;;;2631003;47;20738;-82
2021/08/18 02:05:52;;;;;;;7.90;7.20;;;14.40;99.90;;;;;;2631025;54;20133;-81
2021/08/18 02:08:20;;;;;;;6.97;6.38;;;14.40;99.90;;;;;;2631158;46;20177;-81
2021/08/18 02:10:49;;;;;;;6.93;6.32;;;14.50;99.90;;;;;;2631251;47;20146;-81
2021/08/18 02:13:19;;;;;;;7.43;6.82;;;14.50;99.90;;;;;;2631133;54;20871;-83
2021/08/18 02:15:48;;;;;;;7.30;6.70;;;14.60;99.90;;;;;;2630714;54;20150;-82
2021/08/18 02:18:19;;;;;;;7.93;6.88;;;14.50;99.90;;;;;;2631067;54;20144;-81
2021/08/18 02:20:50;;;;;;;7.47;6.63;;;14.40;99.90;;;;;;2631056;47;20161;-82
2021/08/18 02:23:20;;;;;;;8.00;7.30;;;14.40;99.90;;;;;;2631132;47;20130;-81
2021/08/18 02:25:49;;;;;;;7.78;7.07;;;14.30;99.90;;;;;;2634937;39;20630;-80
2021/08/18 02:28:18;;;;;;;7.78;7.07;;;14.50;99.90;;;;;;2629163;47;20206;-81
2021/08/18 02:30:47;;;;;;;7.80;7.10;;;14.50;99.90;;;;;;2630939;51;20152;-81
2021/08/18 02:33:24;;;;;;;6.20;5.65;;;14.50;99.90;;;;;;2630916;54;20141;-82
2021/08/18 02:35:53;;;;;;;7.47;6.78;;;14.50;99.90;;;;;;2630927;46;20160;-83
2021/08/18 02:40:56;;;;;;;6.65;5.93;;;14.40;99.90;;;;;;2630344;47;20192;-80
2021/08/18 02:43:25;;;;;;;7.50;6.38;;;14.50;99.90;;;;;;2630931;54;20174;-79
2021/08/18 02:45:54;;;;;;;7.40;6.70;;;14.50;99.90;;;;;;2630568;47;20179;-79
2021/08/18 02:48:26;;;;;;;6.53;5.95;;;14.50;99.90;;;;;;2630351;54;20152;-80
2021/08/18 02:50:57;;;;;;;8.13;7.13;;;14.50;99.90;;;;;;2631092;54;20248;-80
2021/08/18 02:53:26;;;;;;;7.78;7.07;;;14.50;99.90;;;;;;2635848;39;20706;-81
2021/08/18 02:55:55;;;;;;;7.15;6.50;;;14.40;99.90;;;;;;2630799;54;20145;-80
2021/08/18 02:58:24;;;;;;;5.72;5.25;;;14.50;99.90;;;;;;2630981;47;20145;-79
2021/08/18 03:00:53;;;;;;;6.57;6.07;;;14.40;99.90;;;;;;2631002;47;20154;-80
2021/08/18 03:03:21;;;;;;;6.28;5.53;;;14.40;99.90;;;;;;2630967;54;20138;-78
2021/08/18 03:05:53;;;;;;;4.90;4.50;;;14.40;99.90;;;;;;2630473;47;20862;-80
2021/08/18 03:08:21;;;;;;;4.40;4.10;;;14.40;99.90;;;;;;2630999;54;20142;-80
2021/08/18 03:10:50;;;;;;;4.53;4.22;;;14.50;99.90;;;;;;2635284;46;20180;-79
2021/08/18 03:13:19;;;;;;;4.63;4.13;;;14.40;99.90;;;;;;2630887;47;20133;-80
2021/08/18 03:15:48;;;;;;;3.85;3.55;;;14.40;99.90;;;;;;2630686;54;20130;-79
2021/08/18 03:18:17;;;;;;;3.92;3.42;;;14.50;99.90;;;;;;2630893;54;20177;-81
2021/08/18 03:20:45;;;;;;;4.72;4.07;;;14.60;99.90;;;;;;2630859;51;20237;-79
2021/08/18 03:23:17;;;;;;;5.20;3.75;;;14.60;99.90;;;;;;2630882;47;20181;-80
2021/08/18 03:25:45;;;;;;;4.03;3.60;;;14.50;99.90;;;;;;2630728;47;20145;-80
2021/08/18 03:28:15;;;;;;;4.95;4.55;;;14.60;99.90;;;;;;2630673;54;20145;-80
2021/08/18 03:30:44;;;;;;;4.63;4.22;;;14.50;99.90;;;;;;2630699;54;20177;-81
2021/08/18 03:33:13;;;;;;;4.75;4.35;;;14.50;99.90;;;;;;2636590;39;20802;-79
2021/08/18 03:35:41;;;;;;;5.20;4.70;;;14.60;99.90;;;;;;2630396;54;20130;-79
2021/08/18 03:38:10;;;;;;;6.95;6.28;;;14.60;99.90;;;;;;2630941;47;20726;-80
2021/08/18 03:40:41;;;;;;;6.97;6.38;;;14.60;99.90;;;;;;2633672;46;20180;-79
2021/08/18 03:43:10;;;;;;;6.72;6.10;;;14.60;99.90;;;;;;2629524;47;20209;-77
2021/08/18 03:45:39;;;;;;;6.93;6.32;;;14.60;99.90;;;;;;2625431;47;20179;-77
2021/08/18 03:48:08;;;;;;;7.35;6.43;;;14.60;99.90;;;;;;2627034;54;20141;-77
2021/08/18 03:50:37;;;;;;;7.68;6.97;;;14.70;99.90;;;;;;2626318;47;20173;-76
2021/08/18 03:53:06;;;;;;;9.57;7.20;;;14.70;99.90;;;;;;2628536;39;20586;-76
2021/08/18 03:55:34;;;;;;;5.90;5.38;;;14.70;99.90;;;;;;2626559;47;20149;-77
2021/08/18 03:58:06;;;;;;;8.40;6.85;;;14.60;99.90;;;;;;2626297;51;20153;-77
2021/08/18 04:00:35;;;;;;;7.05;6.38;;;14.70;99.90;;;;;;2626321;54;20180;-78
2021/08/18 04:03:04;;;;;;;8.13;6.78;;;14.70;99.90;;;;;;2626509;54;20142;-78
2021/08/18 04:05:33;;;;;;;7.65;6.95;;;14.80;99.90;;;;;;2626574;47;20156;-77
2021/08/18 04:08:06;;;;;;;8.25;7.47;;;14.80;99.90;;;;;;2627066;31;20839;-77
2021/08/18 04:10:35;;;;;;;8.18;7.20;;;14.80;99.90;;;;;;2626555;54;20180;-78
2021/08/18 04:13:07;;;;;;;7.00;6.40;;;14.80;99.90;;;;;;2626859;47;20177;-78
2021/08/18 04:15:39;;;;;;;9.48;7.28;;;14.90;99.90;;;;;;2627666;47;20149;-77
2021/08/18 04:18:08;;;;;;;15.77;6.95;;;14.90;99.90;;;;;;2627431;54;20218;-76
2021/08/18 04:20:38;;;;;;;8.82;8.05;;;14.80;99.90;;;;;;2627575;47;20552;-76
2021/08/18 04:23:07;;;;;;;7.68;6.97;;;14.80;99.90;;;;;;2626498;54;20142;-78
2021/08/18 04:25:37;;;;;;;7.40;6.50;;;14.80;99.90;;;;;;2626547;54;20196;-77
2021/08/18 04:28:09;;;;;;;8.52;7.72;;;14.80;99.90;;;;;;2626620;47;20161;-76
2021/08/18 04:30:38;;;;;;;8.95;8.15;;;14.80;99.90;;;;;;2626258;47;20747;-77
2021/08/18 04:33:07;;;;;;;8.55;7.82;;;14.70;99.90;;;;;;2627387;47;20160;-76
2021/08/18 04:35:35;;;;;;;9.50;8.52;;;14.80;99.90;;;;;;2626817;47;20157;-78
2021/08/18 04:38:05;;;;;;;10.85;9.75;;;14.80;99.90;;;;;;2625878;54;20141;-77
2021/08/18 04:40:34;;;;;;;10.88;9.85;;;14.80;99.90;;;;;;2627917;47;20192;-77
2021/08/18 04:43:03;;;;;;;11.32;10.13;;;14.80;99.90;;;;;;2628554;47;20154;-79
2021/08/18 04:45:34;;;;;;;10.45;9.45;;;14.90;99.90;;;;;;2627777;47;20161;-77
2021/08/18 04:48:04;;;;;;;10.70;9.57;;;14.80;99.90;;;;;;2628821;47;20149;-78
2021/08/18 04:50:33;;;;;;;10.95;9.85;;;14.90;99.90;;;;;;2627487;46;20196;-76
2021/08/18 04:53:02;;;;;;;9.55;8.65;;;14.90;99.90;;;;;;2628325;54;20728;-78
2021/08/18 04:55:30;;;;;;;12.52;11.35;;;14.90;99.90;;;;;;2627548;54;20141;-76
2021/08/18 04:57:59;;;;;;;10.70;9.60;;;14.90;99.90;;;;;;2627793;54;20155;-76
2021/08/18 05:00:28;;;;;;;10.60;9.60;;;15.00;99.90;;;;;;2627920;54;20175;-77
2021/08/18 05:03:00;;;;;;;10.07;9.13;;;15.00;99.90;;;;;;2628813;54;20177;-76
2021/08/18 05:05:29;;;;;;;10.95;10.00;;;15.10;99.90;;;;;;2627848;54;20183;-76
2021/08/18 05:07:58;;;;;;;11.50;10.40;;;15.10;99.90;;;;;;2630003;39;20659;-77
2021/08/18 05:10:28;;;;;;;11.60;10.43;;;15.20;99.90;;;;;;2628546;54;20194;-78
2021/08/18 05:12:58;;;;;;;10.45;9.52;;;15.10;99.90;;;;;;2628996;39;20719;-77
2021/08/18 05:15:27;;;;;;;10.43;9.43;;;15.10;99.90;;;;;;2627533;47;20149;-77
2021/08/18 05:17:58;;;;;;;10.15;9.20;;;15.20;99.90;;;;;;2628177;54;20680;-77
2021/08/18 05:20:27;;;;;;;12.35;9.10;;;15.20;99.90;;;;;;2627775;54;20183;-78
2021/08/18 05:22:56;;;;;;;9.95;9.05;;;15.40;99.90;;;;;;2627372;54;20160;-77
2021/08/18 05:25:25;;;;;;;8.10;7.30;;;15.40;99.90;;;;;;2626588;54;20161;-77
2021/08/18 05:27:53;;;;;;;8.48;7.57;;;15.60;99.90;;;;;;2626525;54;20253;-77
2021/08/18 05:30:22;;;;;;;8.30;7.50;;;15.60;99.90;;;;;;2628526;47;20185;-78
2021/08/18 05:32:51;;;;;;;9.10;8.25;;;15.50;99.90;;;;;;2629661;54;20153;-77
2021/08/18 05:35:22;;;;;;;6.70;6.13;;;15.50;99.90;;;;;;2627278;54;20648;-77
2021/08/18 05:37:51;;;;;;;9.20;6.78;;;15.60;99.90;;;;;;2627055;54;20201;-78
2021/08/18 05:40:20;;;;;;;6.80;6.20;;;15.60;99.90;;;;;;2625919;46;20188;-76
2021/08/18 05:42:49;;;;;;;6.43;5.93;;;15.60;99.90;;;;;;2625232;54;20276;-77
2021/08/18 05:45:18;;;;;;;5.40;5.00;;;15.70;99.90;;;;;;2625753;47;20739;-76
2021/08/18 05:47:46;;;;;;;5.47;5.07;;;15.60;99.90;;;;;;2625796;47;20149;-76
2021/08/18 05:50:15;;;;;;;5.65;5.15;;;15.70;99.90;;;;;;2626349;47;20181;-77
2021/08/18 05:52:47;;;;;;;8.98;5.82;;;15.80;99.90;;;;;;2626113;54;20160;-76
2021/08/18 05:55:15;;;;;;;4.75;4.30;;;15.80;99.90;;;;;;2625456;47;20165;-77
2021/08/18 05:57:44;;;;;;;5.35;4.60;;;15.70;99.90;;;;;;2625995;47;20272;-77
2021/08/18 06:00:14;;;;;;;5.30;4.90;;;15.70;99.90;;;;;;2625441;47;20185;-76
2021/08/18 06:02:43;;;;;;;4.80;4.40;;;15.60;99.90;;;;;;2626157;54;20218;-77
2021/08/18 06:05:13;;;;;;;5.40;4.90;;;15.70;99.90;;;;;;2626513;39;20580;-77
2021/08/18 06:07:42;;;;;;;4.50;4.10;;;15.90;99.90;;;;;;2625246;46;20160;-77
2021/08/18 06:10:14;;;;;;;4.82;4.43;;;16.00;99.90;;;;;;2625561;54;20168;-76
2021/08/18 06:12:42;;;;;;;5.03;4.63;;;16.20;99.90;;;;;;2625759;47;20149;-77
2021/08/18 06:15:12;;;;;;;5.43;4.93;;;16.20;99.90;;;;;;2625215;47;20157;-76
2021/08/18 06:17:41;;;;;;;6.20;5.05;;;16.30;99.90;;;;;;2623345;47;20169;-75
2021/08/18 06:20:12;;;;;;;6.45;5.32;;;16.10;99.90;;;;;;2624165;54;20181;-75
2021/08/18 06:22:40;;;;;;;5.97;5.47;;;16.10;99.90;;;;;;2623361;54;20145;-76
2021/08/18 06:25:13;;;;;;;4.63;4.20;;;16.00;99.90;;;;;;2629508;54;20156;-75
2021/08/18 06:27:41;;;;;;;5.35;4.63;;;16.10;99.90;;;;;;2628642;54;20147;-77
2021/08/18 06:30:11;;;;;;;6.03;5.43;;;;;;;;;;2630187;39;20717;-76
2021/08/18 06:32:40;;;;;;;5.85;5.22;;;16.10;99.90;;;;;;2628126;47;20182;-76
2021/08/18 06:35:11;;;;;;;5.70;4.45;;;16.20;99.90;;;;;;2628956;47;20145;-76
2021/08/18 06:37:41;;;;;;;5.10;3.90;;;16.20;99.90;;;;;;2628651;46;20169;-77
2021/08/18 06:40:14;;;;;;;6.45;5.28;;;16.20;99.90;;;;;;2628484;54;20196;-77
2021/08/18 06:42:44;;;;;;;6.38;5.53;;;16.10;99.90;;;;;;2629617;54;20141;-77
2021/08/18 06:45:15;;;;;;;5.20;4.70;;;16.10;99.90;;;;;;2629520;54;20215;-76
2021/08/18 06:47:44;;;;;;;10.43;4.70;;;16.10;99.90;;;;;;2628792;54;20660;-77
2021/08/18 06:50:14;;;;;;;5.80;4.88;;;16.20;99.90;;;;;;2628546;54;20188;-78
2021/08/18 06:52:43;;;;;;;6.68;4.50;;;16.30;99.90;;;;;;2628638;54;20144;-77
2021/08/18 06:55:16;;;;;;;4.78;4.38;;;16.40;99.90;;;;;;2629155;54;20145;-78
2021/08/18 06:57:45;;;;;;;6.05;4.40;;;16.60;99.90;;;;;;2629930;47;20178;-77
2021/08/18 07:00:15;;;;;;;4.00;3.63;;;16.70;99.90;;;;;;2629800;54;20410;-78
2021/08/18 07:02:45;;;;;;;4.85;3.92;;;16.90;99.90;;;;;;2626595;47;20426;-79
2021/08/18 07:05:15;;;;;;;5.80;4.40;;;17.10;99.90;;;;;;2629457;47;20172;-79
2021/08/18 07:07:44;;;;;;;3.92;3.22;;;17.20;99.90;;;;;;2629148;47;20149;-76
2021/08/18 07:10:17;;;;;;;4.70;4.30;;;17.10;99.90;;;;;;2634641;39;20763;-77
2021/08/18 07:12:46;;;;;;;3.70;3.30;;;17.10;99.90;;;;;;2629244;54;20160;-81
2021/08/18 07:15:15;;;;;;;4.68;4.20;;;17.00;99.90;;;;;;2629558;47;20153;-77
2021/08/18 07:17:44;;;;;;;3.50;3.20;;;17.10;99.90;;;;;;2629977;47;20129;-78
2021/08/18 07:20:14;;;;;;;4.78;3.15;;;17.10;99.90;;;;;;2629445;47;20230;-78
2021/08/18 07:22:43;;;;;;;4.45;4.05;;;17.00;99.90;;;;;;2629101;47;20153;-77
2021/08/18 07:25:15;;;;;;;4.40;3.78;;;16.90;99.90;;;;;;2628279;47;20176;-78
2021/08/18 07:27:44;;;;;;;4.95;4.20;;;17.00;99.90;;;;;;2629595;47;20153;-78
2021/08/18 07:30:13;;;;;;;4.22;3.53;;;17.00;99.90;;;;;;2629133;47;20180;-78
2021/08/18 07:32:42;;;;;;;4.80;4.30;;;17.10;99.90;;;;;;2627721;54;20164;-77
2021/08/18 07:35:12;;;;;;;4.47;4.07;;;17.30;99.90;;;;;;2627182;54;20713;-79
2021/08/18 07:37:42;;;;;;;3.78;3.47;;;17.30;99.90;;;;;;2629182;54;20149;-79
2021/08/18 07:40:11;;;;;;;5.47;3.60;;;17.40;99.90;;;;;;2629077;47;20265;-77
2021/08/18 07:42:43;;;;;;;2.80;2.60;;;17.60;99.90;;;;;;2627909;47;20161;-77
2021/08/18 07:45:12;;;;;;;3.85;2.42;;;17.60;99.90;;;;;;2628227;47;20561;-77
2021/08/18 07:47:41;;;;;;;3.15;2.90;;;;;;;;;;2627689;47;20153;-76
2021/08/18 07:50:12;;;;;;;8.80;3.72;;;17.50;99.90;;;;;;2626507;54;20188;-78
2021/08/18 07:52:41;;;;;;;4.80;2.67;;;17.60;99.90;;;;;;2626545;54;20161;-77
2021/08/18 07:55:10;;;;;;;3.08;2.83;;;17.50;99.90;;;;;;2624483;47;20153;-77
2021/08/18 07:57:39;;;;;;;2.63;2.22;;;17.60;99.90;;;;;;2626111;47;20168;-78
2021/08/18 08:00:11;;;;;;;3.92;2.10;;;17.80;99.90;;;;;;2626530;54;20161;-76
2021/08/18 08:02:45;;;;;;;3.08;2.30;;;17.90;99.90;;;;;;2624442;54;20156;-77
2021/08/18 08:05:14;;;;;;;4.28;2.67;;;17.80;99.90;;;;;;2626364;47;20150;-79
2021/08/18 08:07:43;;;;;;;2.75;2.55;;;17.60;99.90;;;;;;2628412;54;20160;-78
2021/08/18 08:10:14;;;;;;;5.05;2.33;;;17.70;99.90;;;;;;2627403;47;20181;-77
2021/08/18 08:12:44;;;;;;;3.67;2.75;;;17.70;99.90;;;;;;2625974;51;20154;-78
2021/08/18 08:15:16;;;;;;;3.22;2.65;;;17.60;99.90;;;;;;2626333;54;20160;-77
2021/08/18 08:17:44;;;;;;;4.50;3.05;;;17.70;99.90;;;;;;2628352;47;20848;-78
2021/08/18 08:20:14;;;;;;;4.82;2.55;;;17.60;99.90;;;;;;2625731;54;20181;-77
2021/08/18 08:22:43;;;;;;;1.92;1.77;;;17.60;99.90;;;;;;2630236;54;20225;-78
2021/08/18 08:25:13;;;;;;;4.53;2.92;;;17.70;99.90;;;;;;2630245;47;20154;-79
2021/08/18 08:27:42;;;;;;;4.68;2.92;;;17.80;99.90;;;;;;2630085;54;20151;-79
2021/08/18 08:30:11;;;;;;;2.97;2.70;;;17.80;99.90;;;;;;2629423;47;20213;-77
2021/08/18 08:32:43;;;;;;;5.18;2.78;;;18.00;99.90;;;;;;2629445;54;20149;-79
2021/08/18 08:35:13;;;;;;;4.40;3.10;;;18.10;99.90;;;;;;2629453;47;20145;-78
2021/08/18 08:37:41;;;;;;;3.33;3.03;;;18.20;99.90;;;;;;2629638;54;20149;-79
2021/08/18 08:40:12;;;;;;;3.88;2.20;;;17.90;99.90;;;;;;2623591;36;20247;-40
2021/08/18 08:42:42;;;;;;;3.28;2.97;;;17.90;99.90;;;;;;2618610;54;20203;-40
2021/08/18 08:45:12;;;;;;;3.58;2.50;;;17.80;99.90;;;;;;2618365;54;20168;-42
2021/08/18 08:47:44;;;;;;;3.92;2.53;;;17.90;99.90;;;;;;2618155;47;20152;-40
2021/08/18 08:50:15;;;;;;;6.90;2.72;;;17.90;99.90;;;;;;2617063;54;20243;-42
2021/08/18 08:52:44;;;;;;;2.90;2.60;;;;;;;;;;2616972;54;20212;-43
2021/08/18 08:55:14;;;;;;;4.35;2.30;;;18.00;99.90;;;;;;2616337;54;20229;-42
2021/08/18 08:57:52;;;;;;;6.43;3.20;;;18.30;99.90;;;;;;2616779;54;20141;-46
2021/08/18 09:00:21;;;;;;;3.05;2.45;;;18.30;99.90;;;;;;2615421;54;20261;-39
2021/08/18 09:03:08;;;;;;;4.07;2.88;;;;;;;;;;2616080;54;20714;-41
2021/08/18 09:05:37;;;;;;;2.63;2.40;;;18.50;99.90;;;;;;2616784;54;20141;-42
2021/08/18 09:08:11;;;;;;;6.03;2.50;;;18.50;99.90;;;;;;2616638;54;20669;-40
2021/08/18 09:10:40;;;;;;;2.88;1.77;;;18.40;99.90;;;;;;2616879;39;20543;-41
2021/08/18 09:13:16;;;;;;;4.53;1.92;;;18.40;99.90;;;;;;2617134;39;20578;-41
2021/08/18 09:15:45;;;;;;;2.50;2.30;;;18.50;99.90;;;;;;2616595;54;20678;-40
2021/08/18 09:18:17;;;;;;;4.28;2.20;;;18.40;99.90;;;;;;2617055;39;20524;-40
2021/08/18 09:20:46;;;;;;;3.80;2.33;;;18.40;99.90;;;;;;2616898;54;20257;-39
2021/08/18 09:23:15;;;;;;;5.55;2.67;;;18.30;99.90;;;;;;2616770;46;20200;-43
2021/08/18 09:25:44;;;;;;;3.75;2.28;;;18.50;99.90;;;;;;2616368;54;20141;-40
2021/08/18 09:28:22;;;;;;;5.05;3.13;;;18.60;99.90;;;;;;2616546;47;20200;-41
2021/08/18 09:30:59;;;;;;;2.38;2.17;;;18.70;99.90;;;;;;2617158;39;20239;-41
2021/08/18 09:33:34;;;;;;;3.10;2.63;;;;;;;;;;2616807;54;20184;-41
2021/08/18 09:36:03;;;;;;;5.40;2.83;;;;;;;;;;2616544;39;20562;-40
2021/08/18 09:38:32;;;;;;;4.15;1.85;;;;;;;;;;2615810;54;20161;-40
2021/08/18 09:41:01;;;;;;;2.03;1.80;;;;;;;;;;2615866;54;20150;-41
2021/08/18 09:43:31;;;;;;;3.05;2.53;;;18.60;99.90;;;;;;2616524;54;20181;-41
2021/08/18 09:46:01;;;;;;;2.47;2.20;;;18.80;99.90;;;;;;2616417;54;20160;-42
2021/08/18 09:48:33;;;;;;;2.47;2.28;;;;;;;;;;2616523;54;20680;-44
2021/08/18 09:51:03;;;;;;;3.92;2.78;;;18.80;99.90;;;;;;2616362;54;20138;-41
2021/08/18 09:53:34;;;;;;;3.33;2.65;;;18.40;99.90;;;;;;2616076;54;20199;-41
2021/08/18 09:56:06;;;;;;;4.18;2.53;;;18.20;99.90;;;;;;2616204;54;20141;-42
2021/08/18 09:58:36;;;;;;;4.88;1.92;;;18.30;99.90;;;;;;2616718;54;20138;-41
2021/08/18 10:01:08;;;;;;;2.53;2.33;;;18.40;99.90;;;;;;2616263;54;20157;-41
2021/08/18 10:03:41;;;;;;;3.85;2.08;;;18.60;99.90;;;;;;2616659;46;20165;-41
2021/08/18 10:06:11;;;;;;;3.10;1.65;;;18.80;99.90;;;;;;2616336;54;20141;-43
2021/08/18 10:08:42;;;;;;;2.60;2.35;;;18.70;99.90;;;;;;2616517;54;20155;-41
2021/08/18 10:11:13;;;;;;;5.20;2.28;;;18.50;99.90;;;;;;2616360;54;20142;-41
2021/08/18 10:13:42;;;;;;;2.65;2.45;;;18.40;99.90;;;;;;2616660;54;20176;-44
2021/08/18 10:16:13;;;;;;;2.60;2.40;;;18.20;99.90;;;;;;2616545;54;20152;-41
2021/08/18 10:18:46;;;;;;;3.25;2.65;;;18.10;99.90;;;;;;2616357;54;20156;-40
2021/08/18 10:21:20;;;;;;;2.58;2.38;;;18.10;99.90;;;;;;2616131;54;20157;-41
2021/08/18 10:23:54;;;;;;;3.17;2.60;;;18.20;99.90;;;;;;2616379;54;20192;-46
2021/08/18 10:26:53;;;;;;;7.15;2.67;;;18.30;99.90;;;;;;2615848;54;20156;-42
2021/08/18 10:29:33;;;;;;;4.15;2.25;;;18.50;99.90;;;;;;2615790;54;20184;-43
2021/08/18 10:32:05;;;;;;;5.07;2.55;;;18.90;99.90;;;;;;2616215;51;20153;-43
2021/08/18 10:34:41;;;;;;;3.67;2.50;;;19.20;99.90;;;;;;2616691;39;20561;-43
2021/08/18 10:37:23;;;;;;;2.38;2.17;;;19.20;99.90;;;;;;2616415;54;20152;-43
2021/08/18 10:39:55;;;;;;;4.50;2.03;;;19.60;99.90;;;;;;2616122;54;20130;-41
2021/08/18 10:42:36;;;;;;;2.90;1.63;;;19.90;99.90;;;;;;2616382;54;20185;-41
2021/08/18 10:45:26;;;;;;;2.88;1.48;;;19.90;99.90;;;;;;2616305;54;20283;-42
2021/08/18 10:47:59;;;;;;;2.17;1.98;;;19.70;99.90;;;;;;2616026;31;20669;-42
2021/08/18 10:50:49;;;;;;;2.30;2.10;;;19.60;99.90;;;;;;2616090;54;20142;-43
2021/08/18 10:53:35;;;;;;;2.22;1.45;;;;;;;;;;2617194;39;20556;-43
2021/08/18 10:56:34;;;;;;;3.53;1.23;;;19.40;99.90;;;;;;2616188;54;20150;-42
2021/08/18 10:59:38;;;;;;;2.53;1.30;;;19.30;99.90;;;;;;2616509;54;20157;-42
2021/08/18 11:02:09;;;;;;;3.10;1.58;;;19.40;99.90;;;;;;2616284;54;20148;-42
2021/08/18 11:04:45;;;;;;;2.67;1.85;;;19.50;99.90;;;;;;2618191;54;20145;-42
2021/08/18 11:07:19;;;;;;;3.85;1.60;;;19.80;99.90;;;;;;2618529;54;20144;-42
2021/08/18 11:10:03;;;;;;;1.50;1.35;;;19.60;99.90;;;;;;2616887;54;20149;-42
2021/08/18 11:12:57;;;;;;;1.70;1.33;;;19.60;99.90;;;;;;2618218;54;20181;-41
2021/08/18 11:15:51;;;;;;;1.30;1.10;;;19.40;99.90;;;;;;2619230;54;20256;-43
2021/08/18 11:18:21;;;;;;;5.00;1.75;;;19.20;99.90;;;;;;2619040;54;20149;-44
2021/08/18 11:20:54;;;;;;;5.15;2.08;;;19.10;99.90;;;;;;2619012;54;20153;-43
2021/08/18 11:23:31;;;;;;;1.17;1.08;;;19.50;99.90;;;;;;2618977;54;20583;-42
2021/08/18 11:26:03;;;;;;;1.13;1.02;;;19.80;99.90;;;;;;2619107;54;20141;-43
2021/08/18 11:28:36;;;;;;;6.72;1.50;;;20.10;99.90;;;;;;2618138;54;20149;-41
2021/08/18 11:31:08;;;;;;;3.80;1.35;;;19.80;99.90;;;;;;2617931;54;20145;-41
2021/08/18 11:33:38;;;;;;;1.85;1.33;;;19.70;99.90;;;;;;2616543;54;20187;-44
2021/08/18 11:36:20;;;;;;;2.92;1.35;;;19.50;99.90;;;;;;2616633;39;20546;-42
2021/08/18 11:39:01;;;;;;;0.90;0.90;;;19.70;99.90;;;;;;2616345;54;20643;-42
2021/08/18 11:41:39;;;;;;;1.35;0.93;;;19.70;99.90;;;;;;2616188;54;20149;-42
2021/08/18 11:44:08;;;;;;;1.70;0.93;;;19.80;99.90;;;;;;2616501;39;20920;-42
2021/08/18 11:46:37;;;;;;;0.93;0.90;;;19.80;99.90;;;;;;2615659;54;20149;-42
2021/08/18 11:49:10;;;;;;;1.67;1.13;;;20.00;99.90;;;;;;2616740;54;20145;-41
2021/08/18 11:51:40;;;;;;;1.13;0.98;;;20.00;99.90;;;;;;2616616;54;20145;-42
2021/08/18 11:54:11;;;;;;;1.42;1.23;;;19.80;99.90;;;;;;2616978;51;20200;-42
2021/08/18 11:56:40;;;;;;;1.25;1.15;;;20.00;99.90;;;;;;2616548;54;20144;-41
2021/08/18 11:59:09;;;;;;;2.13;1.63;;;20.10;99.90;;;;;;2617360;47;20153;-43
2021/08/18 12:01:38;;;;;;;3.80;1.60;;;20.30;99.90;;;;;;2617125;54;20145;-42
2021/08/18 12:04:07;;;;;;;3.70;1.23;;;20.50;99.90;;;;;;2616803;48;20177;-48
2021/08/18 12:06:40;;;;;;;2.42;1.10;;;20.80;99.90;;;;;;2616962;54;20148;-41
2021/08/18 12:09:24;;;;;;;1.10;1.00;;;20.90;99.90;;;;;;2616871;54;20157;-41
2021/08/18 12:12:08;;;;;;;2.38;1.10;;;21.10;99.90;;;;;;2616733;54;20148;-44
2021/08/18 12:14:42;;;;;;;2.00;1.38;;;20.80;99.90;;;;;;2616352;54;20141;-44
2021/08/18 12:17:12;;;;;;;1.63;1.30;;;20.90;99.90;;;;;;2616597;54;20156;-43
2021/08/18 12:19:42;;;;;;;1.48;1.23;;;20.90;99.90;;;;;;2617044;47;20148;-42
2021/08/18 12:22:21;;;;;;;1.50;1.40;;;20.80;99.90;;;;;;2617156;39;20801;-41
2021/08/18 12:24:55;;;;;;;2.50;1.40;;;20.30;99.90;;;;;;2616699;54;20141;-43
2021/08/18 12:27:27;;;;;;;5.60;1.30;;;20.20;99.90;;;;;;2617041;54;20152;-42
2021/08/18 12:30:04;;;;;;;1.95;1.85;;;20.40;99.90;;;;;;2616892;54;20265;-42
2021/08/18 12:32:33;;;;;;;1.83;1.67;;;20.40;99.90;;;;;;2616652;54;20276;-44
2021/08/18 12:35:03;;;;;;;3.17;1.63;;;20.30;99.90;;;;;;2616581;54;20141;-42
2021/08/18 12:37:35;;;;;;;5.05;1.60;;;20.00;99.90;;;;;;2616920;54;20145;-42
2021/08/18 12:40:09;;;;;;;6.55;1.55;;;19.80;99.90;;;;;;2616514;54;20245;-42
2021/08/18 12:42:41;;;;;;;4.85;1.77;;;19.60;99.90;;;;;;2616873;54;20185;-43
2021/08/18 12:45:12;;;;;;;4.03;1.50;;;19.70;99.90;;;;;;2616604;54;20148;-43
2021/08/18 12:47:43;;;;;;;2.25;1.65;;;19.70;99.90;;;;;;2616973;54;20133;-41
2021/08/18 12:50:14;;;;;;;2.88;1.60;;;19.70;99.90;;;;;;2616828;54;20144;-42
2021/08/18 12:52:43;;;;;;;1.65;1.55;;;19.60;99.90;;;;;;2617274;54;20274;-41
2021/08/18 12:55:14;;;;;;;6.10;1.88;;;19.60;99.90;;;;;;2616931;54;20392;-40
2021/08/18 12:57:44;;;;;;;2.50;1.52;;;19.70;99.90;;;;;;2617328;39;20505;-41
2021/08/18 13:00:14;;;;;;;1.77;1.17;;;19.60;99.90;;;;;;2616938;39;20662;-43
2021/08/18 13:02:43;;;;;;;3.17;1.65;;;19.70;99.90;;;;;;2616780;54;20184;-44
2021/08/18 13:05:12;;;;;;;3.85;1.40;;;19.80;99.90;;;;;;2616589;54;20299;-41
2021/08/18 13:07:42;;;;;;;4.80;1.52;;;19.80;99.90;;;;;;2617163;39;20558;-44
2021/08/18 13:10:15;;;;;;;3.25;1.80;;;20.20;99.90;;;;;;2616027;54;20145;-45